Portada
METAR-TAF:

METAR-TAF

Aeropuertos :

Walvis Bay, Namibia

latitud: 22-58-59S, longitud: 014-39E, altitud: 46 m

Observación

El informe se hizo hace 44 minutos, a las 13:00 UTC
Viento 9 kt del oeste-noroeste
Temperatura 22°C
Humedad 57%
Presión 1012 hPa
Visibilidad 10 km o más
sin nubes por debajo de 1500 m y sin presencia de cumulonimbus.

METAR: FYWB 251300Z 30009KT CAVOK 22/13 Q1012

Hora: 15:44 (13:44 UTC)

Pronóstico

El informe se hizo hace 3 horas y 44 minutos, a las 10:00 UTC
Pronóstico válido del 25 a las 12 UTC al 26 a las 12 UTC
Viento 12 kt del oeste-suroeste
Visibilidad 10 km o más
sin nubes por debajo de 1500 m y sin presencia de cumulonimbus.
Evolucionando progresivamente
del 25 a las 19 UTC al 25 a las 21 UTC
Viento 6 kt del este-noreste
Visibilidad 10 km o más
Cielo nuboso a una altura de 1300 ft

TAF: FYWB 251000Z 2512/2612 25012KT CAVOK BECMG 2519/2521 07006KT 9999 BKN013

Observaciones y pronósticos meteorológicos de más de 4000 aeropuertos (mensajes METAR y TAF).

Los puntos amarillos y rojos representan las estaciones disponibles.

Ponga el ratón en el punto deseado para ver el nombre de la estación.

Haga clic para ver las observaciones y los pronósticos meteorológicos.

Para cambiar el mapa : haga clic en los botones verdes con una cruz de color negro para hacer un zoom, en el botón verde con un guión para alejar o en las flechas verdes para mapas adyacentes.


METAR-TAF: